createdAt,value
2023-05-19T00:02:26.259Z,59.70
2023-05-19T00:04:53.427Z,59.60
2023-05-19T00:07:24.738Z,59.90
2023-05-19T00:09:51.736Z,61.30
2023-05-19T00:12:18.677Z,60.00
2023-05-19T00:14:45.665Z,59.80
2023-05-19T00:17:12.804Z,60.10
2023-05-19T00:19:40.214Z,60.20
2023-05-19T00:22:06.966Z,60.20
2023-05-19T00:24:34.371Z,60.30
2023-05-19T00:27:01.264Z,60.40
2023-05-19T00:29:28.613Z,60.40
2023-05-19T00:31:56.856Z,60.40
2023-05-19T00:34:23.770Z,61.50
2023-05-19T00:36:51.071Z,60.70
2023-05-19T00:39:17.866Z,61.30
2023-05-19T00:41:44.645Z,60.80
2023-05-19T00:44:11.522Z,60.90
2023-05-19T00:46:38.331Z,61.00
2023-05-19T00:49:05.284Z,61.10
2023-05-19T00:51:32.663Z,61.30
2023-05-19T00:53:59.542Z,61.60
2023-05-19T00:56:26.919Z,61.50
2023-05-19T00:58:54.661Z,61.90
2023-05-19T01:01:22.347Z,61.70
2023-05-19T01:03:49.995Z,62.50
2023-05-19T01:06:19.055Z,61.80
2023-05-19T01:08:46.197Z,61.90
2023-05-19T01:11:13.048Z,62.00
2023-05-19T01:13:41.960Z,62.10
2023-05-19T01:16:30.784Z,62.40
2023-05-19T01:19:35.164Z,63.70
2023-05-19T01:22:27.461Z,64.60
2023-05-19T01:25:19.904Z,65.20
2023-05-19T01:28:24.295Z,64.40
2023-05-19T01:30:56.710Z,64.90
2023-05-19T01:33:24.825Z,64.70
2023-05-19T01:35:55.255Z,63.90
2023-05-19T01:38:23.310Z,64.10
2023-05-19T01:40:51.457Z,63.70
2023-05-19T01:43:21.830Z,63.70
2023-05-19T01:45:49.408Z,64.60
2023-05-19T01:48:17.354Z,63.90
2023-05-19T01:50:46.262Z,63.70
2023-05-19T01:53:13.430Z,64.10
2023-05-19T01:55:49.856Z,63.80
2023-05-19T01:58:19.517Z,65.10
2023-05-19T02:00:53.065Z,63.70
2023-05-19T02:03:37.220Z,63.50
2023-05-19T02:06:19.947Z,65.60
2023-05-19T02:08:55.638Z,65.90
2023-05-19T02:11:54.617Z,65.70
2023-05-19T02:14:29.731Z,66.40
2023-05-19T02:16:58.297Z,66.50
2023-05-19T02:19:28.354Z,65.90
2023-05-19T02:21:56.426Z,66.30
2023-05-19T02:24:23.483Z,65.00
2023-05-19T02:26:52.149Z,64.90
2023-05-19T02:29:20.475Z,65.90
2023-05-19T02:31:47.634Z,66.00
2023-05-19T02:34:14.462Z,65.60
2023-05-19T02:36:43.142Z,65.40
2023-05-19T02:39:11.082Z,66.40
2023-05-19T02:41:40.949Z,66.90
2023-05-19T02:44:08.338Z,67.70
2023-05-19T02:46:36.351Z,66.00
2023-05-19T02:49:03.765Z,66.20
2023-05-19T02:51:30.678Z,66.30
2023-05-19T02:53:57.515Z,66.30
2023-05-19T02:56:24.550Z,66.40
2023-05-19T02:58:52.616Z,66.40
2023-05-19T03:01:22.088Z,66.50
2023-05-19T03:03:49.115Z,66.70
2023-05-19T03:06:17.975Z,66.70
2023-05-19T03:08:45.007Z,66.80
2023-05-19T03:11:11.917Z,66.80
2023-05-19T03:13:38.715Z,67.30
2023-05-19T03:16:08.121Z,67.00
2023-05-19T03:18:35.244Z,67.30
2023-05-19T03:21:01.995Z,67.10
2023-05-19T03:23:28.776Z,67.10
2023-05-19T03:25:56.296Z,67.20
2023-05-19T03:28:23.479Z,67.10
2023-05-19T03:30:50.802Z,67.20
2023-05-19T03:33:20.215Z,67.20
2023-05-19T03:35:47.208Z,67.10
2023-05-19T03:38:14.945Z,67.10
2023-05-19T03:40:49.143Z,67.10
2023-05-19T03:43:16.179Z,67.50
2023-05-19T03:45:47.934Z,67.20
2023-05-19T03:48:33.354Z,67.50
2023-05-19T03:51:20.746Z,67.40
2023-05-19T03:53:50.152Z,67.50
2023-05-19T03:56:18.153Z,67.60
2023-05-19T03:58:46.948Z,67.70
2023-05-19T04:01:14.847Z,67.90
2023-05-19T04:03:41.889Z,67.50
2023-05-19T04:06:08.873Z,67.90
2023-05-19T04:08:35.714Z,67.70
2023-05-19T04:11:02.735Z,67.80
2023-05-19T04:13:29.673Z,68.20
2023-05-19T04:15:56.503Z,67.80
2023-05-19T04:18:23.413Z,67.90
2023-05-19T04:20:51.097Z,67.90
2023-05-19T04:23:19.409Z,67.90
2023-05-19T04:25:48.744Z,67.30
2023-05-19T04:28:16.236Z,67.90
2023-05-19T04:30:43.203Z,68.80
2023-05-19T04:33:10.119Z,68.00
2023-05-19T04:35:38.156Z,68.00
2023-05-19T04:38:05.326Z,68.10
2023-05-19T04:40:34.021Z,68.10
2023-05-19T04:43:02.047Z,68.10
2023-05-19T04:45:29.995Z,68.10
2023-05-19T04:47:59.910Z,68.20
2023-05-19T04:50:28.615Z,68.10
2023-05-19T04:52:58.940Z,68.20
2023-05-19T04:55:26.127Z,68.00
2023-05-19T04:57:53.428Z,68.00
2023-05-19T05:00:21.343Z,68.00
2023-05-19T05:02:59.999Z,68.70
2023-05-19T05:05:29.712Z,68.00
2023-05-19T05:07:57.373Z,67.90
2023-05-19T05:10:26.517Z,68.10
2023-05-19T05:12:54.458Z,68.80
2023-05-19T05:15:21.968Z,68.50
2023-05-19T05:17:50.912Z,68.60
2023-05-19T05:20:19.627Z,68.60
2023-05-19T05:22:47.912Z,68.50
2023-05-19T05:25:16.318Z,69.40
2023-05-19T05:27:43.652Z,69.50
2023-05-19T05:30:10.559Z,67.60
2023-05-19T05:32:38.467Z,67.50
2023-05-19T05:35:10.743Z,67.30
2023-05-19T05:37:38.461Z,66.90
2023-05-19T05:40:07.058Z,66.50
2023-05-19T05:42:34.736Z,66.60
2023-05-19T05:45:01.514Z,66.80
2023-05-19T05:47:28.683Z,66.90
2023-05-19T05:49:55.880Z,67.20
2023-05-19T05:52:25.770Z,67.10
2023-05-19T05:54:52.741Z,67.30
2023-05-19T05:57:20.832Z,67.20
2023-05-19T05:59:48.190Z,67.10
2023-05-19T06:02:15.521Z,67.40
2023-05-19T06:04:42.619Z,66.30
2023-05-19T06:07:09.615Z,66.00
2023-05-19T06:09:38.386Z,65.80
2023-05-19T06:12:07.257Z,65.60
2023-05-19T06:14:39.668Z,65.70
2023-05-19T06:17:29.269Z,65.40
2023-05-19T06:19:57.308Z,65.10
2023-05-19T06:22:25.158Z,65.30
2023-05-19T06:24:53.368Z,64.40
2023-05-19T06:27:20.196Z,63.70
2023-05-19T06:29:47.162Z,63.40
2023-05-19T06:32:14.095Z,63.10
2023-05-19T06:34:40.989Z,62.60
2023-05-19T06:37:07.840Z,62.20
2023-05-19T06:39:34.673Z,62.30
2023-05-19T06:42:01.658Z,61.80
2023-05-19T06:44:47.181Z,61.50
2023-05-19T06:47:16.654Z,61.30
2023-05-19T06:49:44.939Z,61.80
2023-05-19T06:52:12.215Z,62.10
2023-05-19T06:54:39.218Z,61.60
2023-05-19T06:57:06.039Z,60.50
2023-05-19T06:59:32.965Z,60.10
2023-05-19T07:02:00.196Z,59.40
2023-05-19T07:04:27.452Z,58.90
2023-05-19T07:06:55.871Z,58.90
2023-05-19T07:09:22.726Z,58.90
2023-05-19T07:11:53.268Z,58.50
2023-05-19T07:14:20.914Z,58.70
2023-05-19T07:16:47.887Z,57.60
2023-05-19T07:19:15.081Z,57.20
2023-05-19T07:21:42.462Z,56.40
2023-05-19T07:24:09.345Z,56.00
2023-05-19T07:26:36.191Z,55.40
2023-05-19T07:29:03.294Z,55.30
2023-05-19T07:31:30.163Z,55.50
2023-05-19T07:33:57.537Z,54.60
2023-05-19T07:36:24.488Z,54.50
2023-05-19T07:38:51.345Z,53.50
2023-05-19T07:41:18.209Z,53.40
2023-05-19T07:43:44.978Z,52.70
2023-05-19T07:46:11.783Z,51.50
2023-05-19T07:48:38.568Z,51.30
2023-05-19T07:51:05.490Z,51.10
2023-05-19T07:53:32.354Z,50.60
2023-05-19T07:55:59.119Z,50.60
2023-05-19T07:58:26.179Z,50.30
2023-05-19T08:00:53.315Z,49.90
2023-05-19T08:03:21.026Z,49.90
2023-05-19T08:05:48.160Z,49.40
2023-05-19T08:08:16.779Z,48.80
2023-05-19T08:10:43.931Z,49.20
2023-05-19T08:13:10.729Z,49.00
2023-05-19T08:15:37.811Z,48.40
2023-05-19T08:18:05.377Z,47.70
2023-05-19T08:20:32.865Z,46.70
2023-05-19T08:23:00.144Z,46.60
2023-05-19T08:25:26.938Z,46.10
2023-05-19T08:27:53.849Z,45.70
2023-05-19T08:30:20.685Z,45.40
2023-05-19T08:32:48.579Z,44.80
2023-05-19T08:35:15.659Z,44.90
2023-05-19T08:37:42.790Z,44.60
2023-05-19T08:40:15.898Z,44.20
2023-05-19T08:42:43.138Z,44.20
2023-05-19T08:45:10.476Z,43.10
2023-05-19T08:47:37.484Z,43.10
2023-05-19T08:50:10.878Z,42.60
2023-05-19T08:53:02.369Z,42.50
2023-05-19T08:55:36.862Z,41.70
2023-05-19T08:58:04.650Z,43.00
2023-05-19T09:00:32.664Z,42.10
2023-05-19T09:03:17.474Z,41.50
2023-05-19T09:05:46.571Z,42.00
2023-05-19T09:08:13.736Z,41.90
2023-05-19T09:10:40.851Z,40.80
2023-05-19T09:13:07.710Z,40.60
2023-05-19T09:15:36.827Z,40.90
2023-05-19T09:18:09.126Z,40.80
2023-05-19T09:20:46.293Z,41.60
2023-05-19T09:23:17.768Z,41.90
2023-05-19T09:25:52.707Z,41.80
2023-05-19T09:28:27.805Z,41.70
2023-05-19T09:31:11.146Z,41.40
2023-05-19T09:33:42.226Z,40.90
2023-05-19T09:36:11.582Z,40.50
2023-05-19T09:38:39.265Z,40.10
2023-05-19T09:41:08.405Z,39.80
2023-05-19T09:43:35.575Z,39.40
2023-05-19T09:46:07.182Z,39.50
2023-05-19T09:48:35.506Z,40.30
2023-05-19T09:51:03.103Z,39.90
2023-05-19T09:53:31.218Z,39.70
2023-05-19T09:55:58.681Z,39.10
2023-05-19T09:58:26.368Z,39.30
2023-05-19T10:00:54.736Z,39.40
2023-05-19T10:03:23.295Z,39.40
2023-05-19T10:05:51.465Z,39.20
2023-05-19T10:08:18.487Z,39.40
2023-05-19T10:10:48.396Z,39.50
2023-05-19T10:13:16.632Z,40.00
2023-05-19T10:15:57.288Z,40.00
2023-05-19T10:18:26.886Z,39.10
2023-05-19T10:20:55.895Z,39.20
2023-05-19T10:23:23.537Z,39.40
2023-05-19T10:25:53.776Z,39.10
2023-05-19T10:28:25.805Z,38.60
2023-05-19T10:30:57.003Z,39.30
2023-05-19T10:33:51.415Z,38.80
2023-05-19T10:36:48.354Z,38.70
2023-05-19T10:39:16.573Z,39.10
2023-05-19T10:42:02.053Z,37.90
2023-05-19T10:44:53.789Z,37.90
2023-05-19T10:47:25.559Z,37.60
2023-05-19T10:49:56.622Z,37.80
2023-05-19T10:52:30.020Z,37.30
2023-05-19T10:54:58.309Z,37.10
2023-05-19T10:57:30.621Z,35.90
2023-05-19T10:59:58.195Z,37.40
2023-05-19T11:02:41.556Z,37.00
2023-05-19T11:05:11.133Z,38.30
2023-05-19T11:07:40.943Z,38.20
2023-05-19T11:10:08.103Z,37.70
2023-05-19T11:12:46.071Z,35.70
2023-05-19T11:15:14.637Z,36.20
2023-05-19T11:17:42.789Z,36.20
2023-05-19T11:20:20.389Z,36.50
2023-05-19T11:23:04.738Z,35.50
2023-05-19T11:25:48.403Z,35.60
2023-05-19T11:28:26.053Z,34.20
2023-05-19T11:30:57.551Z,34.40
2023-05-19T11:33:28.493Z,34.20
2023-05-19T11:35:59.573Z,33.90
2023-05-19T11:38:28.223Z,33.80
2023-05-19T11:40:56.311Z,34.20
2023-05-19T11:43:24.649Z,34.20
2023-05-19T11:45:51.896Z,35.30
2023-05-19T11:48:21.624Z,34.10
2023-05-19T11:50:48.636Z,34.00
2023-05-19T11:53:19.813Z,33.20
2023-05-19T11:55:48.423Z,33.40
2023-05-19T11:58:15.920Z,32.80
2023-05-19T12:00:46.145Z,32.60
2023-05-19T12:03:13.631Z,31.90
2023-05-19T12:05:46.010Z,31.80
2023-05-19T12:08:14.048Z,31.40
2023-05-19T12:10:41.077Z,30.70
2023-05-19T12:13:09.529Z,30.20
2023-05-19T12:15:37.392Z,30.60
2023-05-19T12:18:04.585Z,30.80
2023-05-19T12:20:32.589Z,29.50
2023-05-19T12:23:01.117Z,29.80
2023-05-19T12:25:29.665Z,29.50
2023-05-19T12:28:05.335Z,29.40
2023-05-19T12:30:33.663Z,30.30
2023-05-19T12:33:01.991Z,30.50
2023-05-19T12:35:33.220Z,30.50
2023-05-19T12:38:04.800Z,30.00
2023-05-19T12:40:33.300Z,29.70
2023-05-19T12:43:00.359Z,30.30
2023-05-19T12:45:28.582Z,31.30
2023-05-19T12:47:56.057Z,31.20
2023-05-19T12:50:30.723Z,30.20
2023-05-19T12:52:59.498Z,30.00
2023-05-19T12:55:26.305Z,30.30
2023-05-19T12:57:56.876Z,30.20
2023-05-19T13:00:32.593Z,29.80
2023-05-19T13:03:02.850Z,30.20
2023-05-19T13:05:31.096Z,30.10
2023-05-19T13:07:59.705Z,29.80
2023-05-19T13:10:27.635Z,29.90
2023-05-19T13:12:59.978Z,29.60
2023-05-19T13:15:29.377Z,28.60
2023-05-19T13:17:56.222Z,28.70
2023-05-19T13:20:24.654Z,29.10
2023-05-19T13:22:52.745Z,29.20
2023-05-19T13:25:21.388Z,28.50
2023-05-19T13:27:48.957Z,28.90
2023-05-19T13:30:19.032Z,29.40
2023-05-19T13:32:46.452Z,30.70
2023-05-19T13:35:14.579Z,31.60
2023-05-19T13:37:44.866Z,32.10
2023-05-19T13:40:12.054Z,31.80
2023-05-19T13:42:39.072Z,30.70
2023-05-19T13:45:06.322Z,30.10
2023-05-19T13:47:33.189Z,30.30
2023-05-19T13:50:00.253Z,29.60
2023-05-19T13:52:28.221Z,29.10
2023-05-19T13:54:56.826Z,29.10
2023-05-19T13:57:24.520Z,29.50
2023-05-19T14:00:01.851Z,29.00
2023-05-19T14:02:39.675Z,29.50
2023-05-19T14:05:07.499Z,28.60
2023-05-19T14:07:37.023Z,29.40
2023-05-19T14:10:06.409Z,29.10
2023-05-19T14:12:44.997Z,29.00
2023-05-19T14:15:19.804Z,28.10
2023-05-19T14:17:47.097Z,27.80
2023-05-19T14:20:13.978Z,27.50
2023-05-19T14:22:41.085Z,28.10
2023-05-19T14:25:08.306Z,28.10
2023-05-19T14:27:35.134Z,28.10
2023-05-19T14:30:02.133Z,27.80
2023-05-19T14:32:30.379Z,27.20
2023-05-19T14:34:57.538Z,27.90
2023-05-19T14:37:26.501Z,28.00
2023-05-19T14:39:53.547Z,27.40
2023-05-19T14:42:20.397Z,26.70
2023-05-19T14:44:47.215Z,27.30
2023-05-19T14:47:14.032Z,28.00
2023-05-19T14:49:40.968Z,27.90
2023-05-19T14:52:07.710Z,27.60
2023-05-19T14:54:34.551Z,27.60
2023-05-19T14:57:01.651Z,26.90
2023-05-19T14:59:29.660Z,25.30
2023-05-19T15:01:56.500Z,25.80
2023-05-19T15:04:23.456Z,26.90
2023-05-19T15:07:02.059Z,26.20
2023-05-19T15:09:36.385Z,26.40
2023-05-19T15:12:03.292Z,26.90
2023-05-19T15:14:30.965Z,26.50
2023-05-19T15:16:58.502Z,26.30
2023-05-19T15:19:26.192Z,26.10
2023-05-19T15:21:53.339Z,26.30
2023-05-19T15:24:20.129Z,26.40
2023-05-19T15:26:47.185Z,26.40
2023-05-19T15:29:13.958Z,26.50
2023-05-19T15:31:41.307Z,26.60
2023-05-19T15:34:08.430Z,25.90
2023-05-19T15:36:35.558Z,26.00
2023-05-19T15:39:03.701Z,26.10
2023-05-19T15:41:30.586Z,25.90
2023-05-19T15:44:00.037Z,25.80
2023-05-19T15:46:26.959Z,25.50
2023-05-19T15:48:53.851Z,25.60
2023-05-19T15:51:20.896Z,26.50
2023-05-19T15:53:48.065Z,26.70
2023-05-19T15:56:14.994Z,25.40
2023-05-19T15:58:41.933Z,25.10
2023-05-19T16:01:09.119Z,25.90
2023-05-19T16:03:36.051Z,26.60
2023-05-19T16:06:03.674Z,26.30
2023-05-19T16:08:30.619Z,26.40
2023-05-19T16:10:57.457Z,26.90
2023-05-19T16:13:24.304Z,27.00
2023-05-19T16:15:51.156Z,27.30
2023-05-19T16:18:18.032Z,27.50
2023-05-19T16:20:44.897Z,26.60
2023-05-19T16:23:11.664Z,27.10
2023-05-19T16:25:38.463Z,26.50
2023-05-19T16:28:05.669Z,26.30
2023-05-19T16:30:32.846Z,26.20
2023-05-19T16:32:59.904Z,26.10
2023-05-19T16:35:29.317Z,26.40
2023-05-19T16:37:56.193Z,26.60
2023-05-19T16:40:22.997Z,26.40
2023-05-19T16:42:49.798Z,25.80
2023-05-19T16:45:17.497Z,26.20
2023-05-19T16:47:44.615Z,26.90
2023-05-19T16:50:12.886Z,27.40
2023-05-19T16:52:39.702Z,28.00
2023-05-19T16:55:07.085Z,28.20
2023-05-19T16:57:33.900Z,27.40
2023-05-19T17:00:00.789Z,27.30
2023-05-19T17:02:28.222Z,26.50
2023-05-19T17:04:55.629Z,25.90
2023-05-19T17:07:22.365Z,26.40
2023-05-19T17:09:49.229Z,26.60
2023-05-19T17:12:15.969Z,27.00
2023-05-19T17:14:43.502Z,27.60
2023-05-19T17:17:10.600Z,28.00
2023-05-19T17:19:37.416Z,28.10
2023-05-19T17:22:04.393Z,28.50
2023-05-19T17:24:33.165Z,28.50
2023-05-19T17:27:00.663Z,28.60
2023-05-19T17:29:27.903Z,28.40
2023-05-19T17:31:55.406Z,28.40
2023-05-19T17:34:22.267Z,28.30
2023-05-19T17:36:49.760Z,28.40
2023-05-19T17:39:16.690Z,28.50
2023-05-19T17:41:43.534Z,28.40
2023-05-19T17:44:12.289Z,28.70
2023-05-19T17:46:39.545Z,29.30
2023-05-19T17:49:06.725Z,29.40
2023-05-19T17:51:33.697Z,29.50
2023-05-19T17:54:00.840Z,29.90
2023-05-19T17:56:30.667Z,30.00
2023-05-19T17:58:57.754Z,30.00
2023-05-19T18:01:25.813Z,30.10
2023-05-19T18:03:53.007Z,30.20
2023-05-19T18:06:20.379Z,30.20
2023-05-19T18:08:50.497Z,30.40
2023-05-19T18:11:18.269Z,30.80
2023-05-19T18:13:45.541Z,31.50
2023-05-19T18:16:12.723Z,31.60
2023-05-19T18:18:43.355Z,31.50
2023-05-19T18:21:17.521Z,31.60
2023-05-19T18:23:45.222Z,31.50
2023-05-19T18:26:15.825Z,31.60
2023-05-19T18:28:43.364Z,31.70
2023-05-19T18:31:15.594Z,33.20
2023-05-19T18:33:43.182Z,32.20
2023-05-19T18:36:10.167Z,32.30
2023-05-19T18:38:36.919Z,32.40
2023-05-19T18:41:05.979Z,32.50
2023-05-19T18:43:32.755Z,32.60
2023-05-19T18:45:59.720Z,32.60
2023-05-19T18:48:26.962Z,32.80
2023-05-19T18:50:53.900Z,33.20
2023-05-19T18:53:23.916Z,33.80
2023-05-19T18:55:50.877Z,34.10
2023-05-19T18:58:18.425Z,34.10
2023-05-19T19:00:45.460Z,34.60
2023-05-19T19:03:12.671Z,34.50
2023-05-19T19:05:39.870Z,34.80
2023-05-19T19:08:06.774Z,35.00
2023-05-19T19:10:38.896Z,35.20
2023-05-19T19:13:06.090Z,35.70
2023-05-19T19:15:32.882Z,35.90
2023-05-19T19:17:59.731Z,36.10
2023-05-19T19:20:26.687Z,36.60
2023-05-19T19:22:53.521Z,36.20
2023-05-19T19:25:23.101Z,36.10
2023-05-19T19:27:50.539Z,36.60
2023-05-19T19:30:17.457Z,37.00
2023-05-19T19:32:44.310Z,37.10
2023-05-19T19:35:11.498Z,37.60
2023-05-19T19:37:38.253Z,37.40
2023-05-19T19:40:06.162Z,37.30
2023-05-19T19:42:33.074Z,37.90
2023-05-19T19:44:59.893Z,37.90
2023-05-19T19:47:27.365Z,37.90
2023-05-19T19:49:54.234Z,38.40
2023-05-19T19:52:21.035Z,38.80
2023-05-19T19:54:48.166Z,38.60
2023-05-19T19:57:17.188Z,39.30
2023-05-19T19:59:44.038Z,39.20
2023-05-19T20:02:11.033Z,39.50
2023-05-19T20:04:38.138Z,40.20
2023-05-19T20:07:05.190Z,40.40
2023-05-19T20:09:31.932Z,40.30
2023-05-19T20:11:58.738Z,40.40
2023-05-19T20:14:26.023Z,40.50
2023-05-19T20:16:52.843Z,40.60
2023-05-19T20:19:19.748Z,40.80
2023-05-19T20:21:46.627Z,40.80
2023-05-19T20:24:13.675Z,41.00
2023-05-19T20:26:40.486Z,41.00
2023-05-19T20:29:07.252Z,41.00
2023-05-19T20:31:34.052Z,41.30
2023-05-19T20:34:01.872Z,42.30
2023-05-19T20:36:28.951Z,43.30
2023-05-19T20:38:55.775Z,44.00
2023-05-19T20:41:22.574Z,44.60
2023-05-19T20:43:49.342Z,45.30
2023-05-19T20:46:16.338Z,45.90
2023-05-19T20:48:43.216Z,46.70
2023-05-19T20:51:10.008Z,47.30
2023-05-19T20:53:36.764Z,47.50
2023-05-19T20:56:05.212Z,48.10
2023-05-19T20:58:32.242Z,48.50
2023-05-19T21:00:59.038Z,48.90
2023-05-19T21:03:27.006Z,49.20
2023-05-19T21:05:55.039Z,49.70
2023-05-19T21:08:22.088Z,50.20
2023-05-19T21:10:49.015Z,50.20
2023-05-19T21:13:15.932Z,50.40
2023-05-19T21:15:42.682Z,50.40
2023-05-19T21:18:11.307Z,50.40
2023-05-19T21:20:39.006Z,50.50
2023-05-19T21:23:06.158Z,51.80
2023-05-19T21:25:33.059Z,50.80
2023-05-19T21:27:59.925Z,50.60
2023-05-19T21:30:26.663Z,50.80
2023-05-19T21:32:53.555Z,50.80
2023-05-19T21:35:20.415Z,50.90
2023-05-19T21:37:47.115Z,50.90
2023-05-19T21:40:14.014Z,50.80
2023-05-19T21:42:40.764Z,50.80
2023-05-19T21:45:07.966Z,51.00
2023-05-19T21:47:34.791Z,51.20
2023-05-19T21:50:01.675Z,51.10
2023-05-19T21:52:28.499Z,51.10
2023-05-19T21:54:56.125Z,51.50
2023-05-19T21:57:22.920Z,51.10
2023-05-19T21:59:50.136Z,51.20
2023-05-19T22:02:17.019Z,52.20
2023-05-19T22:04:44.799Z,51.00
2023-05-19T22:07:11.543Z,50.90
2023-05-19T22:09:38.510Z,50.60
2023-05-19T22:12:05.920Z,50.60
2023-05-19T22:14:32.711Z,50.50
2023-05-19T22:16:59.510Z,50.40
2023-05-19T22:19:26.595Z,51.40
2023-05-19T22:22:01.869Z,50.50
2023-05-19T22:24:37.026Z,50.60
2023-05-19T22:27:04.005Z,51.10
2023-05-19T22:29:30.844Z,50.80
2023-05-19T22:31:57.600Z,50.70
2023-05-19T22:34:24.612Z,50.50
2023-05-19T22:36:51.426Z,50.50
2023-05-19T22:39:18.153Z,51.00
2023-05-19T22:41:45.500Z,50.50
2023-05-19T22:44:15.968Z,50.70
2023-05-19T22:46:44.238Z,50.80
2023-05-19T22:49:11.055Z,51.40
2023-05-19T22:51:39.259Z,50.80
2023-05-19T22:54:06.896Z,50.90
2023-05-19T22:56:33.992Z,51.30
2023-05-19T22:59:00.852Z,51.20
2023-05-19T23:01:27.737Z,51.40
2023-05-19T23:03:54.538Z,51.50
2023-05-19T23:06:22.365Z,51.50
2023-05-19T23:09:01.767Z,52.40
2023-05-19T23:11:28.510Z,53.40
2023-05-19T23:13:55.527Z,51.80
2023-05-19T23:16:23.481Z,52.60
2023-05-19T23:18:50.342Z,52.00
2023-05-19T23:21:17.223Z,51.90
2023-05-19T23:23:43.979Z,52.10
2023-05-19T23:26:13.223Z,52.20
2023-05-19T23:28:41.960Z,52.30
2023-05-19T23:31:09.322Z,53.40
2023-05-19T23:33:36.272Z,52.80
2023-05-19T23:36:10.536Z,53.00
2023-05-19T23:38:37.755Z,54.40
2023-05-19T23:41:05.067Z,53.20
2023-05-19T23:43:32.412Z,53.30
2023-05-19T23:45:59.788Z,53.20
2023-05-19T23:48:28.897Z,53.40
2023-05-19T23:50:56.819Z,54.50
2023-05-19T23:53:23.829Z,53.80
2023-05-19T23:55:51.385Z,53.80
2023-05-19T23:58:18.238Z,53.90
